Time;durP1;ratioP1;P1;durP2;ratioP2;P2;SDS_P1;SDS_P2;PMS_P1;PMS_P2;Temp;Humidity;BMP_temperature;BMP_pressure;BME280_temperature;BME280_humidity;BME280_pressure;Samples;Min_cycle;Max_cycle;Signal;HPM_P1;HPM_P2
2023/04/29 00:00:38;;;;;;;39.53;25.50;;;12.20;99.90;;;;;;5005991;28;20029;-77
2023/04/29 00:03:04;;;;;;;44.75;28.20;;;12.20;99.90;;;;;;5023807;28;20124;-78
2023/04/29 00:05:30;;;;;;;34.88;22.33;;;12.10;99.90;;;;;;5025263;28;20036;-78
2023/04/29 00:07:56;;;;;;;26.55;16.85;;;12.20;99.90;;;;;;5023958;28;20036;-78
2023/04/29 00:10:22;;;;;;;35.90;24.33;;;12.30;99.90;;;;;;5026733;28;20548;-78
2023/04/29 00:12:48;;;;;;;45.60;26.95;;;12.20;99.90;;;;;;5027086;28;20178;-78
2023/04/29 00:15:14;;;;;;;28.85;16.20;;;12.10;99.90;;;;;;5026823;28;20064;-78
2023/04/29 00:17:39;;;;;;;39.20;26.08;;;12.20;99.90;;;;;;5027181;28;20052;-78
2023/04/29 00:20:06;;;;;;;36.28;23.58;;;12.20;99.90;;;;;;5026792;28;20029;-78
2023/04/29 00:22:32;;;;;;;42.00;26.60;;;12.20;99.90;;;;;;5024276;28;20515;-78
2023/04/29 00:24:57;;;;;;;38.05;24.00;;;12.10;99.90;;;;;;5044681;28;20029;-78
2023/04/29 00:27:23;;;;;;;41.85;27.35;;;12.10;99.90;;;;;;5026880;28;20473;-78
2023/04/29 00:29:48;;;;;;;42.10;24.40;;;12.10;99.90;;;;;;5025215;28;20565;-78
2023/04/29 00:32:14;;;;;;;38.88;24.33;;;12.20;99.90;;;;;;5025594;28;20047;-78
2023/04/29 00:34:39;;;;;;;32.20;20.05;;;12.10;99.90;;;;;;5008081;28;20049;-78
2023/04/29 00:37:05;;;;;;;31.65;20.80;;;12.00;99.90;;;;;;5038158;28;20040;-78
2023/04/29 00:39:30;;;;;;;43.38;26.77;;;12.00;99.90;;;;;;5024440;28;20378;-78
2023/04/29 00:41:56;;;;;;;44.72;27.23;;;12.00;99.90;;;;;;5026355;28;20481;-78
2023/04/29 00:44:22;;;;;;;39.97;25.30;;;12.10;99.90;;;;;;5028909;28;20025;-78
2023/04/29 00:46:47;;;;;;;37.85;21.27;;;11.90;99.90;;;;;;5025076;28;20030;-78
2023/04/29 00:49:13;;;;;;;45.72;27.77;;;11.90;99.90;;;;;;5042472;28;20028;-78
2023/04/29 00:51:39;;;;;;;43.75;26.70;;;11.90;99.90;;;;;;5024604;28;20021;-78
2023/04/29 00:54:04;;;;;;;51.33;28.85;;;11.80;99.90;;;;;;5041394;28;20029;-78
2023/04/29 00:56:31;;;;;;;40.65;23.10;;;11.80;99.90;;;;;;5025737;28;20036;-79
2023/04/29 00:58:57;;;;;;;60.53;36.08;;;11.90;99.90;;;;;;5027536;28;20048;-78
2023/04/29 01:01:23;;;;;;;65.65;36.15;;;11.70;99.90;;;;;;5039363;28;20496;-78
2023/04/29 01:03:49;;;;;;;69.47;37.65;;;11.90;99.90;;;;;;5023443;28;20033;-78
2023/04/29 01:06:42;;;;;;;56.30;33.00;;;11.80;99.90;;;;;;5035650;28;20559;-78
2023/04/29 01:09:56;;;;;;;53.15;28.35;;;11.70;99.90;;;;;;5035952;28;20083;-78
2023/04/29 01:12:30;;;;;;;54.20;30.80;;;11.80;99.90;;;;;;4932007;28;20041;-78
2023/04/29 01:15:03;;;;;;;54.20;30.50;;;11.80;99.90;;;;;;4966703;28;20534;-78
2023/04/29 01:17:30;;;;;;;63.08;33.97;;;11.70;99.90;;;;;;5000171;28;20033;-78
2023/04/29 01:19:56;;;;;;;50.97;27.95;;;11.60;99.90;;;;;;5023001;28;20033;-78
2023/04/29 01:22:22;;;;;;;59.03;31.23;;;11.70;99.90;;;;;;5027157;28;20048;-78
2023/04/29 01:24:48;;;;;;;68.28;36.05;;;11.70;99.90;;;;;;5027404;28;20069;-78
2023/04/29 01:27:26;;;;;;;65.07;35.47;;;11.70;99.90;;;;;;5042119;28;20067;-78
2023/04/29 01:30:04;;;;;;;52.17;27.63;;;11.60;99.90;;;;;;5042928;28;20037;-78
2023/04/29 01:32:52;;;;;;;76.72;38.40;;;11.50;99.90;;;;;;5039552;28;20033;-78
2023/04/29 01:35:40;;;;;;;74.32;37.28;;;11.60;99.90;;;;;;5041672;28;20044;-78
2023/04/29 01:38:57;;;;;;;55.60;27.83;;;11.60;99.90;;;;;;4979441;28;20037;-78
2023/04/29 01:41:44;;;;;;;65.93;32.53;;;11.60;99.90;;;;;;4966620;28;20034;-78
2023/04/29 01:44:17;;;;;;;70.38;32.78;;;11.50;99.90;;;;;;4957823;28;20541;-78
2023/04/29 01:46:46;;;;;;;81.03;39.58;;;11.40;99.90;;;;;;4995900;28;20279;-78
2023/04/29 01:49:12;;;;;;;75.57;36.25;;;11.40;99.90;;;;;;5011313;28;20064;-78
2023/04/29 01:51:37;;;;;;;70.65;32.60;;;11.40;99.90;;;;;;5027164;28;20029;-78
2023/04/29 01:54:04;;;;;;;83.30;39.30;;;11.40;99.90;;;;;;5027173;28;20036;-78
2023/04/29 01:56:29;;;;;;;78.32;37.40;;;11.30;99.90;;;;;;5024860;28;20033;-78
2023/04/29 01:58:55;;;;;;;65.88;33.45;;;11.40;99.90;;;;;;5041590;28;20037;-78
2023/04/29 02:01:21;;;;;;;81.88;39.70;;;11.40;99.90;;;;;;5006851;28;20044;-78
2023/04/29 02:03:46;;;;;;;78.50;36.80;;;11.40;99.90;;;;;;5041565;28;20032;-78
2023/04/29 02:06:12;;;;;;;76.88;37.72;;;11.30;99.90;;;;;;5023012;28;20037;-78
2023/04/29 02:08:37;;;;;;;73.70;31.92;;;11.30;99.90;;;;;;5039030;28;20121;-78
2023/04/29 02:11:03;;;;;;;83.57;38.33;;;11.10;99.90;;;;;;5041124;28;20084;-78
2023/04/29 02:13:28;;;;;;;81.25;34.38;;;11.10;99.90;;;;;;5009533;28;20029;-78
2023/04/29 02:15:54;;;;;;;74.50;33.55;;;11.10;99.90;;;;;;5020165;28;20093;-78
2023/04/29 02:18:19;;;;;;;93.60;39.72;;;11.20;99.90;;;;;;5023462;28;20043;-78
2023/04/29 02:20:46;;;;;;;85.53;36.67;;;11.20;99.90;;;;;;5040078;28;20132;-78
2023/04/29 02:23:12;;;;;;;77.68;32.83;;;11.10;99.90;;;;;;5026748;28;20116;-79
2023/04/29 02:25:37;;;;;;;82.43;35.30;;;11.10;99.90;;;;;;5023507;28;20064;-79
2023/04/29 02:28:03;;;;;;;83.43;33.20;;;10.90;99.90;;;;;;5040653;28;20059;-79
2023/04/29 02:30:29;;;;;;;83.18;36.22;;;11.00;99.90;;;;;;5007941;28;20057;-79
2023/04/29 02:32:55;;;;;;;69.28;32.00;;;10.90;99.90;;;;;;5032857;28;20048;-78
2023/04/29 02:35:20;;;;;;;69.13;33.58;;;10.90;99.90;;;;;;5040029;28;20021;-77
2023/04/29 02:37:46;;;;;;;75.00;35.13;;;10.90;99.90;;;;;;5022838;28;20051;-79
2023/04/29 02:40:11;;;;;;;76.10;36.33;;;10.90;99.90;;;;;;5024420;28;20029;-79
2023/04/29 02:42:37;;;;;;;58.55;27.08;;;10.80;99.90;;;;;;5040683;28;20119;-79
2023/04/29 02:45:03;;;;;;;62.03;30.63;;;10.80;99.90;;;;;;5026292;28;20032;-78
2023/04/29 02:47:28;;;;;;;72.13;33.05;;;10.90;99.90;;;;;;5041214;28;20047;-79
2023/04/29 02:49:54;;;;;;;68.85;32.20;;;10.80;99.90;;;;;;5038875;28;20182;-79
2023/04/29 02:52:19;;;;;;;48.58;24.13;;;10.80;99.90;;;;;;5025771;28;20036;-78
2023/04/29 02:54:45;;;;;;;73.97;32.88;;;10.70;99.90;;;;;;5024503;28;20519;-78
2023/04/29 02:57:11;;;;;;;52.80;27.75;;;10.70;99.90;;;;;;5039193;28;20127;-78
2023/04/29 02:59:36;;;;;;;56.42;27.23;;;10.80;99.90;;;;;;5022466;28;20120;-79
2023/04/29 03:02:02;;;;;;;55.30;26.33;;;10.70;99.90;;;;;;5025168;28;20029;-79
2023/04/29 03:04:28;;;;;;;53.45;28.58;;;10.80;99.90;;;;;;5005770;28;20091;-79
2023/04/29 03:06:56;;;;;;;58.25;28.83;;;10.70;99.90;;;;;;5022117;28;20060;-79
2023/04/29 03:09:22;;;;;;;56.60;27.08;;;10.70;99.90;;;;;;5022724;28;20083;-79
2023/04/29 03:11:48;;;;;;;50.25;25.38;;;10.70;99.90;;;;;;5007239;28;20040;-79
2023/04/29 03:14:13;;;;;;;51.72;25.25;;;10.60;99.90;;;;;;5038635;28;20033;-79
2023/04/29 03:16:39;;;;;;;49.00;23.95;;;10.50;99.90;;;;;;5005373;28;20040;-77
2023/04/29 03:19:05;;;;;;;45.08;23.40;;;10.50;99.90;;;;;;5024683;28;20079;-79
2023/04/29 03:21:31;;;;;;;43.47;23.75;;;10.60;99.90;;;;;;5025588;28;20607;-79
2023/04/29 03:23:57;;;;;;;41.13;21.70;;;10.50;99.90;;;;;;5021824;28;20161;-79
2023/04/29 03:26:23;;;;;;;46.47;23.98;;;10.70;99.90;;;;;;5008281;28;20045;-78
2023/04/29 03:28:49;;;;;;;46.13;22.08;;;10.60;99.90;;;;;;5040140;28;20053;-79
2023/04/29 03:31:15;;;;;;;49.63;24.90;;;10.60;99.90;;;;;;5025677;28;20056;-79
2023/04/29 03:33:41;;;;;;;40.15;20.15;;;10.40;99.90;;;;;;5038524;28;20037;-78
2023/04/29 03:36:07;;;;;;;37.67;18.10;;;10.40;99.90;;;;;;5005044;28;20439;-78
2023/04/29 03:38:33;;;;;;;41.55;22.15;;;10.50;99.90;;;;;;5022546;28;20824;-79
2023/04/29 03:40:58;;;;;;;39.33;21.85;;;10.40;99.90;;;;;;5042579;28;20033;-78
2023/04/29 03:43:24;;;;;;;37.80;21.25;;;10.40;99.90;;;;;;5040389;28;20406;-78
2023/04/29 03:45:50;;;;;;;36.53;21.02;;;10.30;99.90;;;;;;5025260;28;20423;-78
2023/04/29 03:48:15;;;;;;;41.67;22.42;;;10.50;99.90;;;;;;5026204;28;20031;-78
2023/04/29 03:50:41;;;;;;;42.97;23.48;;;10.50;99.90;;;;;;5011183;28;20037;-78
2023/04/29 03:53:07;;;;;;;45.13;24.00;;;10.30;99.90;;;;;;5029352;28;20071;-78
2023/04/29 03:55:32;;;;;;;39.42;19.73;;;10.30;99.90;;;;;;5009984;28;20029;-79
2023/04/29 03:57:58;;;;;;;36.58;18.35;;;10.40;99.90;;;;;;5027331;28;20567;-78
2023/04/29 04:00:25;;;;;;;45.75;25.08;;;10.40;99.90;;;;;;5012514;28;20120;-78
2023/04/29 04:02:51;;;;;;;46.45;24.77;;;10.30;99.90;;;;;;5010594;28;20088;-78
2023/04/29 04:05:19;;;;;;;33.38;18.95;;;10.30;99.90;;;;;;5026181;28;20405;-78
2023/04/29 04:07:45;;;;;;;41.47;21.60;;;10.30;99.90;;;;;;5011158;28;20029;-78
2023/04/29 04:10:11;;;;;;;45.47;22.80;;;10.30;99.90;;;;;;5040060;28;20040;-78
2023/04/29 04:12:36;;;;;;;34.75;20.02;;;10.20;99.90;;;;;;5028097;28;20033;-78
2023/04/29 04:15:03;;;;;;;43.65;23.77;;;10.30;99.90;;;;;;5027642;28;20044;-79
2023/04/29 04:17:28;;;;;;;33.90;19.02;;;10.20;99.90;;;;;;5025731;28;20480;-79
2023/04/29 04:19:54;;;;;;;40.17;21.70;;;10.20;99.90;;;;;;5026471;28;20112;-78
2023/04/29 04:22:20;;;;;;;36.58;21.02;;;10.20;99.90;;;;;;5045236;28;20047;-78
2023/04/29 04:24:46;;;;;;;33.50;18.88;;;10.20;99.90;;;;;;5023429;28;20029;-78
2023/04/29 04:27:12;;;;;;;39.53;21.70;;;10.10;99.90;;;;;;5022529;28;20025;-78
2023/04/29 04:29:37;;;;;;;36.92;20.85;;;10.10;99.90;;;;;;5027292;28;20396;-78
2023/04/29 04:32:03;;;;;;;41.67;19.92;;;10.20;99.90;;;;;;5043119;28;20037;-79
2023/04/29 04:34:29;;;;;;;39.25;22.17;;;10.10;99.90;;;;;;5026186;28;20061;-77
2023/04/29 04:36:54;;;;;;;33.92;18.00;;;10.10;99.90;;;;;;5024034;28;20396;-77
2023/04/29 04:39:20;;;;;;;39.78;20.65;;;10.10;99.90;;;;;;5027369;28;20044;-77
2023/04/29 04:41:46;;;;;;;38.00;20.45;;;10.10;99.90;;;;;;5028118;28;20087;-77
2023/04/29 04:44:12;;;;;;;37.88;21.00;;;10.10;99.90;;;;;;5024276;28;20040;-77
2023/04/29 04:46:37;;;;;;;42.38;20.75;;;10.10;99.90;;;;;;5041011;28;20570;-77
2023/04/29 04:49:03;;;;;;;42.05;20.58;;;10.10;99.90;;;;;;5040520;28;20045;-79
2023/04/29 04:51:29;;;;;;;39.50;20.92;;;10.10;99.90;;;;;;5026808;28;20115;-78
2023/04/29 04:53:55;;;;;;;37.67;21.52;;;10.10;99.90;;;;;;5026360;28;20717;-78
2023/04/29 04:56:21;;;;;;;37.38;19.88;;;10.00;99.90;;;;;;5028128;28;20029;-78
2023/04/29 04:58:46;;;;;;;37.13;19.83;;;10.10;99.90;;;;;;5023732;28;20537;-78
2023/04/29 05:01:12;;;;;;;38.00;21.23;;;10.10;99.90;;;;;;5040680;28;20044;-77
2023/04/29 05:03:37;;;;;;;42.28;24.42;;;10.10;99.90;;;;;;5041273;28;20086;-78
2023/04/29 05:06:03;;;;;;;41.53;22.90;;;10.00;99.90;;;;;;5042304;28;20089;-78
2023/04/29 05:08:29;;;;;;;48.28;22.42;;;10.10;99.90;;;;;;5027165;28;20037;-77
2023/04/29 05:10:54;;;;;;;39.95;20.27;;;10.10;99.90;;;;;;5026165;28;20523;-77
2023/04/29 05:13:20;;;;;;;43.55;22.88;;;10.10;99.90;;;;;;5027065;28;20546;-78
2023/04/29 05:15:45;;;;;;;41.45;23.17;;;10.10;99.90;;;;;;5044748;28;20048;-77
2023/04/29 05:18:11;;;;;;;31.38;16.17;;;10.10;99.90;;;;;;5036322;28;20041;-77
2023/04/29 05:20:36;;;;;;;37.30;20.23;;;10.10;99.90;;;;;;5046349;28;20044;-78
2023/04/29 05:23:02;;;;;;;38.75;21.55;;;10.10;99.90;;;;;;5041669;28;20530;-78
2023/04/29 05:25:28;;;;;;;39.75;21.33;;;10.10;99.90;;;;;;5026946;28;20566;-78
2023/04/29 05:27:53;;;;;;;30.58;17.92;;;10.10;99.90;;;;;;5024199;28;20038;-77
2023/04/29 05:30:19;;;;;;;34.58;19.50;;;10.10;99.90;;;;;;5022293;28;20362;-78
2023/04/29 05:32:45;;;;;;;40.78;21.02;;;10.10;99.90;;;;;;5025071;28;20061;-78
2023/04/29 05:35:10;;;;;;;43.80;24.52;;;10.10;99.90;;;;;;5023287;28;20041;-78
2023/04/29 05:37:36;;;;;;;40.75;24.30;;;10.20;99.90;;;;;;5025877;28;20086;-77
2023/04/29 05:40:02;;;;;;;39.70;23.55;;;10.10;99.90;;;;;;5042546;28;20052;-77
2023/04/29 05:42:28;;;;;;;36.33;22.30;;;10.10;99.90;;;;;;5007363;28;20133;-78
2023/04/29 05:44:53;;;;;;;46.63;24.25;;;10.20;99.90;;;;;;5022286;28;20108;-77
2023/04/29 05:47:19;;;;;;;41.30;23.83;;;10.20;99.90;;;;;;5007465;28;20079;-77
2023/04/29 05:49:45;;;;;;;39.22;22.33;;;10.20;99.90;;;;;;5024652;28;20037;-77
2023/04/29 05:52:10;;;;;;;36.97;22.52;;;10.20;99.90;;;;;;5025968;28;20049;-78
2023/04/29 05:54:36;;;;;;;44.03;24.90;;;10.20;99.90;;;;;;5006482;28;20035;-78
2023/04/29 05:57:02;;;;;;;39.75;23.13;;;10.30;99.90;;;;;;5022258;28;20040;-77
2023/04/29 05:59:29;;;;;;;36.45;21.83;;;10.30;99.90;;;;;;5027047;28;20087;-78
2023/04/29 06:01:56;;;;;;;46.80;24.48;;;10.30;99.90;;;;;;5025871;28;20041;-77
2023/04/29 06:04:21;;;;;;;38.45;21.55;;;10.40;99.90;;;;;;5026444;28;20481;-77
2023/04/29 06:06:47;;;;;;;45.38;25.10;;;10.40;99.90;;;;;;5022595;28;20029;-77
2023/04/29 06:09:14;;;;;;;44.70;24.63;;;10.20;99.90;;;;;;5036811;28;20036;-78
2023/04/29 06:11:40;;;;;;;33.60;21.25;;;10.30;99.90;;;;;;5020659;28;20047;-78
2023/04/29 06:14:05;;;;;;;38.28;23.83;;;10.30;99.90;;;;;;5007378;28;20480;-78
2023/04/29 06:16:31;;;;;;;30.70;16.58;;;10.30;99.90;;;;;;5005546;28;20730;-77
2023/04/29 06:18:57;;;;;;;35.65;21.48;;;10.30;99.90;;;;;;5021859;28;22030;-77
2023/04/29 06:21:22;;;;;;;27.23;17.55;;;10.40;99.90;;;;;;5024682;28;20086;-77
2023/04/29 06:23:48;;;;;;;22.45;14.57;;;10.40;99.90;;;;;;5037802;28;20057;-77
2023/04/29 06:26:14;;;;;;;34.33;21.33;;;10.50;99.90;;;;;;5041168;28;20079;-78
2023/04/29 06:28:39;;;;;;;34.30;20.98;;;10.40;99.90;;;;;;5041338;28;20443;-77
2023/04/29 06:31:05;;;;;;;31.65;18.45;;;10.40;99.90;;;;;;5024349;28;20034;-78
2023/04/29 06:33:32;;;;;;;27.67;16.70;;;10.40;99.90;;;;;;5033037;28;20040;-77
2023/04/29 06:35:58;;;;;;;35.42;21.88;;;10.40;99.90;;;;;;5024685;28;20083;-78
2023/04/29 06:38:24;;;;;;;32.22;21.42;;;10.40;99.90;;;;;;5023810;28;20040;-76
2023/04/29 06:40:50;;;;;;;33.17;20.90;;;10.50;99.90;;;;;;5040332;28;20036;-78
2023/04/29 06:43:15;;;;;;;35.00;21.85;;;10.40;99.90;;;;;;5038182;28;20549;-78
2023/04/29 06:45:41;;;;;;;33.75;22.33;;;10.40;99.90;;;;;;5039719;28;20029;-78
2023/04/29 06:48:07;;;;;;;34.80;20.35;;;10.50;99.90;;;;;;5023394;28;20042;-78
2023/04/29 06:50:32;;;;;;;37.28;22.83;;;10.50;99.90;;;;;;5041441;28;20392;-79
2023/04/29 06:52:58;;;;;;;35.85;21.30;;;10.50;99.90;;;;;;5041352;28;20497;-78
2023/04/29 06:55:23;;;;;;;32.78;20.45;;;10.40;99.90;;;;;;5009197;28;20043;-78
2023/04/29 06:57:49;;;;;;;27.92;19.00;;;10.40;99.90;;;;;;5039632;28;20040;-77
2023/04/29 07:00:15;;;;;;;34.38;21.30;;;10.50;99.90;;;;;;5042572;28;20123;-78
2023/04/29 07:02:40;;;;;;;33.80;20.90;;;10.50;99.90;;;;;;5005812;28;20102;-78
2023/04/29 07:05:06;;;;;;;35.00;21.30;;;10.50;99.90;;;;;;5003980;28;20432;-78
2023/04/29 07:07:32;;;;;;;31.95;21.52;;;10.60;99.90;;;;;;5007748;28;20060;-78
2023/04/29 07:09:57;;;;;;;34.40;21.98;;;10.60;99.90;;;;;;5020543;28;20045;-78
2023/04/29 07:12:23;;;;;;;27.20;18.05;;;10.60;99.90;;;;;;5036755;28;20036;-77
2023/04/29 07:14:49;;;;;;;32.00;21.23;;;10.60;99.90;;;;;;5040174;28;20047;-78
2023/04/29 07:17:14;;;;;;;33.60;22.60;;;10.60;99.90;;;;;;5024268;28;20201;-78
2023/04/29 07:19:40;;;;;;;33.42;21.55;;;10.60;99.90;;;;;;5045089;28;20128;-78
2023/04/29 07:22:05;;;;;;;35.58;23.10;;;10.60;99.90;;;;;;5048706;28;20033;-78
2023/04/29 07:24:31;;;;;;;36.97;22.98;;;10.50;99.90;;;;;;5031783;28;20037;-78
2023/04/29 07:26:56;;;;;;;35.28;21.55;;;10.60;99.90;;;;;;5028071;28;20288;-78
2023/04/29 07:29:22;;;;;;;45.40;26.35;;;10.60;99.90;;;;;;5047971;28;20048;-79
2023/04/29 07:31:48;;;;;;;40.47;25.25;;;10.60;99.90;;;;;;5046669;28;20040;-77
2023/04/29 07:34:13;;;;;;;43.08;27.55;;;10.50;99.90;;;;;;5039841;28;20022;-77
2023/04/29 07:36:39;;;;;;;44.08;28.67;;;10.50;99.90;;;;;;5013666;28;20039;-77
2023/04/29 07:39:04;;;;;;;44.40;28.75;;;10.40;99.90;;;;;;5029362;28;20053;-77
2023/04/29 07:41:30;;;;;;;47.63;28.77;;;10.40;99.90;;;;;;5048607;28;20028;-78
2023/04/29 07:43:55;;;;;;;48.15;27.92;;;10.30;99.90;;;;;;5044511;28;20393;-77
2023/04/29 07:46:22;;;;;;;39.05;24.35;;;10.30;99.90;;;;;;5031835;28;20025;-77
2023/04/29 07:48:47;;;;;;;39.95;25.05;;;10.30;99.90;;;;;;5048202;28;20116;-77
2023/04/29 07:51:13;;;;;;;43.47;25.60;;;10.40;99.90;;;;;;5043273;28;20323;-77
2023/04/29 07:53:39;;;;;;;41.90;25.98;;;10.40;99.90;;;;;;5010644;28;20048;-77
2023/04/29 07:56:08;;;;;;;40.58;24.30;;;10.40;99.90;;;;;;5049303;28;20128;-77
2023/04/29 07:58:34;;;;;;;41.13;25.85;;;10.40;99.90;;;;;;5047506;28;20575;-77
2023/04/29 08:01:09;;;;;;;42.65;25.58;;;10.50;99.90;;;;;;5013353;28;20100;-78
2023/04/29 08:03:35;;;;;;;45.20;31.77;;;10.30;99.90;;;;;;5026096;28;20035;-78
2023/04/29 08:06:02;;;;;;;45.10;28.10;;;10.30;99.90;;;;;;5029531;28;20033;-79
2023/04/29 08:08:28;;;;;;;51.03;31.25;;;10.20;99.90;;;;;;5045304;28;20571;-79
2023/04/29 08:10:53;;;;;;;59.08;32.92;;;10.20;99.90;;;;;;5039822;28;20064;-79
2023/04/29 08:13:19;;;;;;;40.22;24.42;;;10.20;99.90;;;;;;5046301;28;20480;-78
2023/04/29 08:15:45;;;;;;;59.05;33.97;;;10.20;99.90;;;;;;5026977;28;20105;-78
2023/04/29 08:18:10;;;;;;;67.53;39.05;;;10.30;99.90;;;;;;5043424;28;20040;-77
2023/04/29 08:20:36;;;;;;;60.30;36.92;;;10.20;99.90;;;;;;5046352;28;20055;-78
2023/04/29 08:23:01;;;;;;;62.53;35.38;;;10.20;99.90;;;;;;5026500;28;20124;-78
2023/04/29 08:25:28;;;;;;;55.65;34.08;;;10.20;99.90;;;;;;5031990;28;20503;-77
2023/04/29 08:27:53;;;;;;;64.40;38.85;;;10.10;99.90;;;;;;5025975;28;20060;-77
2023/04/29 08:30:19;;;;;;;56.00;33.38;;;10.10;99.90;;;;;;5045460;28;20052;-78
2023/04/29 08:32:44;;;;;;;62.35;33.30;;;10.10;99.90;;;;;;5011886;28;20068;-78
2023/04/29 08:35:10;;;;;;;59.63;33.75;;;10.10;99.90;;;;;;5045314;28;20559;-77
2023/04/29 08:37:36;;;;;;;63.35;34.08;;;10.00;99.90;;;;;;5010063;28;20053;-78
2023/04/29 08:40:02;;;;;;;59.33;33.83;;;10.10;99.90;;;;;;5028308;28;20029;-77
2023/04/29 08:42:35;;;;;;;68.50;36.30;;;10.10;99.90;;;;;;5038914;28;20041;-78
2023/04/29 08:45:01;;;;;;;64.30;35.28;;;10.10;99.90;;;;;;5028625;28;20511;-78
2023/04/29 08:47:29;;;;;;;59.38;32.17;;;10.10;99.90;;;;;;5028621;28;20060;-77
2023/04/29 08:49:55;;;;;;;78.72;40.83;;;10.20;99.90;;;;;;5041510;28;20033;-78
2023/04/29 08:52:20;;;;;;;74.82;38.92;;;10.10;99.90;;;;;;5027252;28;20595;-77
2023/04/29 08:54:46;;;;;;;74.20;39.00;;;10.20;99.90;;;;;;5026796;28;20037;-77
2023/04/29 08:57:12;;;;;;;69.75;41.42;;;10.10;99.90;;;;;;5042204;28;20441;-78
2023/04/29 08:59:37;;;;;;;70.90;38.90;;;10.10;99.90;;;;;;5042363;28;20024;-77
2023/04/29 09:02:05;;;;;;;75.85;37.30;;;10.10;99.90;;;;;;5021265;28;20075;-77
2023/04/29 09:04:39;;;;;;;69.70;38.35;;;10.10;99.90;;;;;;5024239;28;20029;-77
2023/04/29 09:07:05;;;;;;;69.80;37.65;;;10.10;99.90;;;;;;5041191;28;20515;-77
2023/04/29 09:09:31;;;;;;;73.75;37.50;;;10.10;99.90;;;;;;5028401;28;20392;-77
2023/04/29 09:11:57;;;;;;;68.05;36.10;;;10.10;99.90;;;;;;5044355;28;20965;-77
2023/04/29 09:14:23;;;;;;;68.63;37.08;;;10.20;99.90;;;;;;5044535;28;20041;-77
2023/04/29 09:16:48;;;;;;;64.97;34.45;;;10.20;99.90;;;;;;5023938;28;20762;-77
2023/04/29 09:19:33;;;;;;;67.25;37.30;;;10.30;99.90;;;;;;5026881;28;20370;-77
2023/04/29 09:21:59;;;;;;;66.35;37.10;;;10.30;99.90;;;;;;5027968;28;20562;-77
2023/04/29 09:24:26;;;;;;;76.20;41.92;;;10.40;99.90;;;;;;5037835;28;20480;-77
2023/04/29 09:26:51;;;;;;;68.63;37.75;;;10.40;99.90;;;;;;5026140;28;20037;-77
2023/04/29 09:29:20;;;;;;;71.47;35.92;;;10.50;99.90;;;;;;5043695;28;20056;-77
2023/04/29 09:31:47;;;;;;;67.00;36.70;;;10.50;99.90;;;;;;5036674;28;20501;-77
2023/04/29 09:34:13;;;;;;;67.30;36.50;;;10.60;99.90;;;;;;5039816;28;20060;-76
2023/04/29 09:36:49;;;;;;;73.63;37.65;;;10.60;99.90;;;;;;5026617;28;20477;-77
2023/04/29 09:39:19;;;;;;;67.97;38.17;;;10.70;99.90;;;;;;5023568;28;20140;-77
2023/04/29 09:41:54;;;;;;;67.47;37.67;;;10.80;99.90;;;;;;5023351;28;20064;-77
2023/04/29 09:44:30;;;;;;;62.53;33.78;;;10.80;99.90;;;;;;5040895;28;20064;-77
2023/04/29 09:47:06;;;;;;;70.53;35.17;;;10.80;99.90;;;;;;5024609;28;20481;-77
2023/04/29 09:49:37;;;;;;;55.83;33.20;;;10.90;99.90;;;;;;5025620;28;20029;-77
2023/04/29 09:52:04;;;;;;;64.22;36.80;;;10.90;99.90;;;;;;5034027;28;20554;-77
2023/04/29 09:54:31;;;;;;;58.08;33.15;;;11.00;99.90;;;;;;5020635;28;20365;-77
2023/04/29 09:56:58;;;;;;;57.72;31.80;;;11.10;99.90;;;;;;5040497;28;21230;-77
2023/04/29 09:59:23;;;;;;;55.38;31.63;;;11.00;99.90;;;;;;5042666;28;20104;-77
2023/04/29 10:01:50;;;;;;;55.00;34.92;;;11.00;99.90;;;;;;5042310;28;20116;-77
2023/04/29 10:04:17;;;;;;;65.22;33.33;;;11.10;99.90;;;;;;5034586;28;20109;-77
2023/04/29 10:06:44;;;;;;;64.05;33.95;;;11.10;99.90;;;;;;5024123;28;20815;-77
2023/04/29 10:09:12;;;;;;;54.92;32.80;;;11.20;99.90;;;;;;5038223;28;20381;-77
2023/04/29 10:11:38;;;;;;;61.42;35.65;;;11.30;99.90;;;;;;5042117;28;20107;-77
2023/04/29 10:14:03;;;;;;;55.40;32.78;;;11.40;99.90;;;;;;5006155;28;20485;-76
2023/04/29 10:16:30;;;;;;;52.92;31.77;;;11.50;99.90;;;;;;5039197;28;20021;-76
2023/04/29 10:18:56;;;;;;;62.47;34.03;;;11.60;99.90;;;;;;5023522;28;20510;-76
2023/04/29 10:21:31;;;;;;;59.78;34.90;;;11.60;99.90;;;;;;5024547;28;20109;-76
2023/04/29 10:23:57;;;;;;;62.23;33.17;;;11.90;99.90;;;;;;5024960;28;20047;-78
2023/04/29 10:26:27;;;;;;;60.97;35.08;;;12.10;99.90;;;;;;5026617;28;20329;-77
2023/04/29 10:28:56;;;;;;;52.58;30.77;;;12.40;99.90;;;;;;5039791;28;20061;-77
2023/04/29 10:31:25;;;;;;;49.72;31.23;;;12.60;99.90;;;;;;5041314;28;20396;-77
2023/04/29 10:33:50;;;;;;;54.35;31.45;;;12.90;99.90;;;;;;5024313;28;20038;-76
2023/04/29 10:36:16;;;;;;;46.05;27.35;;;13.20;99.90;;;;;;5024902;28;20502;-78
2023/04/29 10:38:47;;;;;;;46.92;28.52;;;13.50;99.90;;;;;;5023583;28;20240;-77
2023/04/29 10:41:24;;;;;;;43.05;27.58;;;13.80;99.90;;;;;;4999894;28;20033;-77
2023/04/29 10:43:52;;;;;;;49.28;29.35;;;13.90;99.90;;;;;;5005654;28;20044;-76
2023/04/29 10:46:19;;;;;;;48.15;28.45;;;14.20;99.90;;;;;;5024067;28;20033;-77
2023/04/29 10:48:46;;;;;;;47.58;27.95;;;14.40;99.90;;;;;;5024305;28;20116;-77
2023/04/29 10:51:11;;;;;;;41.70;28.33;;;14.60;99.90;;;;;;5025927;28;20725;-77
2023/04/29 10:54:11;;;;;;;46.40;26.15;;;14.80;99.90;;;;;;5003764;28;20035;-76
2023/04/29 10:56:41;;;;;;;39.97;24.33;;;15.00;99.90;;;;;;5022970;28;20037;-76
2023/04/29 10:59:36;;;;;;;40.03;24.17;;;15.40;99.90;;;;;;5033734;28;20048;-76
2023/04/29 11:02:01;;;;;;;37.17;24.90;;;15.60;99.90;;;;;;5019743;28;20053;-77
2023/04/29 11:04:27;;;;;;;34.10;24.10;;;15.90;99.90;;;;;;5025323;28;20064;-77
2023/04/29 11:06:57;;;;;;;34.08;25.02;;;16.10;99.90;;;;;;5038933;28;20053;-77
2023/04/29 11:09:29;;;;;;;34.22;23.92;;;16.40;99.90;;;;;;5019022;28;20029;-77
2023/04/29 11:11:57;;;;;;;40.15;24.90;;;16.60;99.90;;;;;;5057032;28;20162;-77
2023/04/29 11:14:28;;;;;;;31.85;23.25;;;16.70;99.90;;;;;;5025149;28;20025;-76
2023/04/29 11:16:58;;;;;;;30.00;24.45;;;16.90;99.90;;;;;;5033837;28;20585;-77
2023/04/29 11:19:27;;;;;;;34.97;26.10;;;17.10;99.90;;;;;;5039295;28;20029;-76
2023/04/29 11:22:11;;;;;;;34.53;24.75;;;17.30;99.90;;;;;;5038608;28;20037;-77
2023/04/29 11:24:52;;;;;;;39.08;24.75;;;17.40;99.90;;;;;;5019630;28;20485;-77
2023/04/29 11:27:19;;;;;;;39.28;28.23;;;17.50;99.90;;;;;;5039572;28;20033;-77
2023/04/29 11:29:48;;;;;;;37.30;26.35;;;17.70;99.90;;;;;;5040081;28;20393;-76
2023/04/29 11:32:14;;;;;;;36.65;28.10;;;17.70;99.90;;;;;;5019729;28;20029;-78
2023/04/29 11:34:39;;;;;;;37.13;24.45;;;17.90;99.90;;;;;;5025074;28;20029;-78
2023/04/29 11:37:05;;;;;;;37.97;26.58;;;18.10;99.90;;;;;;5021615;28;20029;-76
2023/04/29 11:39:37;;;;;;;37.25;24.65;;;18.40;99.90;;;;;;5006865;28;20029;-78
2023/04/29 11:42:05;;;;;;;30.55;22.98;;;18.60;99.90;;;;;;5024047;28;20587;-78
2023/04/29 11:44:37;;;;;;;35.33;22.85;;;18.70;99.90;;;;;;5020450;28;20099;-78
2023/04/29 11:47:05;;;;;;;32.83;21.60;;;19.00;99.90;;;;;;5038076;28;20512;-78
2023/04/29 11:49:36;;;;;;;32.55;21.85;;;19.30;99.90;;;;;;5020485;28;20029;-77
2023/04/29 11:52:01;;;;;;;25.70;20.40;;;19.70;99.90;;;;;;5038565;28;20035;-79
2023/04/29 11:54:28;;;;;;;28.73;22.02;;;19.90;99.90;;;;;;5023572;28;20021;-78
2023/04/29 11:56:56;;;;;;;31.15;20.90;;;20.20;99.90;;;;;;5020644;28;20033;-78
2023/04/29 11:59:22;;;;;;;25.30;19.50;;;20.30;99.90;;;;;;5023769;28;20079;-78
2023/04/29 12:01:49;;;;;;;26.70;20.67;;;20.50;99.90;;;;;;5024809;28;20443;-78
2023/04/29 12:04:15;;;;;;;32.08;22.15;;;20.70;99.90;;;;;;5018071;28;20110;-78
2023/04/29 12:06:41;;;;;;;24.30;20.15;;;20.70;99.90;;;;;;5040240;28;20032;-78
2023/04/29 12:09:07;;;;;;;26.48;21.08;;;20.70;99.90;;;;;;5041654;28;20037;-78
2023/04/29 12:11:34;;;;;;;26.05;20.95;;;20.80;99.90;;;;;;5028232;28;20120;-78
2023/04/29 12:14:01;;;;;;;21.58;18.25;;;20.70;99.90;;;;;;5045162;28;20029;-78
2023/04/29 12:16:28;;;;;;;27.20;21.10;;;20.70;99.90;;;;;;5024976;28;20035;-81
2023/04/29 12:18:53;;;;;;;26.77;20.42;;;20.50;99.90;;;;;;5026987;28;20406;-81
2023/04/29 12:21:20;;;;;;;24.00;20.80;;;20.60;99.90;;;;;;5027601;28;20032;-81
2023/04/29 12:23:46;;;;;;;30.00;19.85;;;20.70;99.90;;;;;;5043842;28;20068;-81
2023/04/29 12:26:12;;;;;;;22.95;20.52;;;20.90;99.90;;;;;;5044161;28;20033;-80
2023/04/29 12:28:40;;;;;;;22.25;19.30;;;21.00;99.90;;;;;;5026156;28;20286;-81